Weather at Montréal (Sacré-Coeur) Heliport

Public forecast

Using degrees Celsius for public forecast. Weather courtesy of forecast.io.

Closest aviation weather report (METAR) to Montréal (Sacré-Coeur) Heliport

Closest report is Montreal / Pierre Elliott Trudeau International Airport, 4.1 nm (7.6 km) SSW.

2024/05/22 07:00 (retrieved 33 minutes ago)

CYUL 220700Z 12002KT 15SM SCT065 SCT120 19/17 A2981 RMK SC3AC1 SLP095 DENSITY ALT 700FT

Closest aviation forecast (TAF) to Montréal (Sacré-Coeur) Heliport

Closest forecast is Montreal / Pierre Elliott Trudeau International Airport, 4.1 nm (7.6 km) SSW.

2024/05/22 06:42 (retrieved 51 minutes ago)

TAF CYUL 220540Z 2206/2306 VRB03KT P6SM FEW050 OVC090 TEMPO 2206/2209 P6SM -SHRA BKN050 OVC090 FM220900 VRB03KT P6SM SCT010 SCT030 TEMPO 2209/2214 4SM BR BKN010 BKN030 FM221400 22005KT P6SM BKN020 BECMG 2214/2216 SKC BECMG 2219/2221 BKN060 FM222200 25007KT P6SM -SHRA BKN040 PROB30 2222/2301 VRB15G30KT 2SM TSRA BR BKN020 OVC050CB FM230100 17008KT 4SM -SHRA BKN030 PROB30 2301/2304 VRB20G35KT 1SM +TSRA BKN020 OVC040CB FM230400 24012G22KT P6SM BKN050 PROB30 2304/2306 4SM TSRA BR BKN030CB RMK NXT FCST BY 220900Z